Time;durP1;ratioP1;P1;durP2;ratioP2;P2;SDS_P1;SDS_P2;PMS_P1;PMS_P2;Temp;Humidity;BMP_temperature;BMP_pressure;BME280_temperature;BME280_humidity;BME280_pressure;Samples;Min_cycle;Max_cycle;Signal;HPM_P1;HPM_P2
2022/06/16 00:01:14;;;;;;;;;;;25.50;48.60;;;;;;5044349;28;19956;-78
2022/06/16 00:03:40;;;;;;;;;;;25.40;49.10;;;;;;5040798;28;19933;-77
2022/06/16 00:06:07;;;;;;;;;;;25.40;48.60;;;;;;5042722;28;20312;-77
2022/06/16 00:08:35;;;;;;;;;;;25.40;48.70;;;;;;5042183;28;19940;-76
2022/06/16 00:11:20;;;;;;;;;;;25.30;48.70;;;;;;5043902;28;19929;-77
2022/06/16 00:13:47;;;;;;;;;;;25.30;48.90;;;;;;5039794;28;19964;-75
2022/06/16 00:16:13;;;;;;;;;;;25.20;49.00;;;;;;5042240;28;19928;-81
2022/06/16 00:18:40;;;;;;;;;;;25.20;49.00;;;;;;5041422;28;19935;-79
2022/06/16 00:21:07;;;;;;;;;;;25.10;49.00;;;;;;5042033;28;19940;-75
2022/06/16 00:23:36;;;;;;;;;;;25.10;48.90;;;;;;5039879;28;19940;-77
2022/06/16 00:26:02;;;;;;;;;;;25.10;48.90;;;;;;5038786;28;19928;-75
2022/06/16 00:28:29;;;;;;;;;;;25.00;48.90;;;;;;5039526;28;20019;-75
2022/06/16 00:31:01;;;;;;;;;;;25.00;49.10;;;;;;5038828;28;19936;-75
2022/06/16 00:33:27;;;;;;;;;;;24.90;49.70;;;;;;5039731;28;20289;-78
2022/06/16 00:35:54;;;;;;;;;;;24.90;49.20;;;;;;5041660;28;20726;-77
2022/06/16 00:38:20;;;;;;;;;;;24.90;49.30;;;;;;5039415;28;19936;-78
2022/06/16 00:40:48;;;;;;;;;;;24.80;49.20;;;;;;5042680;28;19936;-76
2022/06/16 00:43:15;;;;;;;;;;;24.80;49.30;;;;;;5041535;28;19929;-79
2022/06/16 00:45:43;;;;;;;;;;;24.70;49.30;;;;;;5042371;28;20037;-76
2022/06/16 00:48:10;;;;;;;;;;;24.70;49.50;;;;;;5042534;28;19982;-77
2022/06/16 00:50:37;;;;;;;;;;;24.70;49.60;;;;;;5042202;28;19937;-77
2022/06/16 00:53:03;;;;;;;;;;;24.60;49.50;;;;;;5044744;28;19931;-75
2022/06/16 00:55:30;;;;;;;;;;;24.60;49.70;;;;;;5040241;28;19936;-75
2022/06/16 00:57:58;;;;;;;;;;;24.50;49.70;;;;;;5042734;28;19932;-79
2022/06/16 01:00:25;;;;;;;;;;;24.50;49.80;;;;;;5041020;28;20274;-80
2022/06/16 01:02:51;;;;;;;;;;;24.50;50.00;;;;;;5043034;28;20002;-77
2022/06/16 01:05:17;;;;;;;;;;;24.40;49.90;;;;;;5043089;28;19951;-75
2022/06/16 01:07:45;;;;;;;;;;;24.30;50.10;;;;;;5045105;28;20373;-78
2022/06/16 01:10:13;;;;;;;;;;;24.30;50.30;;;;;;5038916;28;19948;-76
2022/06/16 01:15:40;;;;;;;;;;;24.30;50.40;;;;;;5042756;28;19981;-76
2022/06/16 01:18:12;;;;;;;;;;;24.20;50.40;;;;;;5041179;28;19928;-78
2022/06/16 01:20:43;;;;;;;;;;;24.20;50.50;;;;;;5041416;28;19929;-76
2022/06/16 01:23:31;;;;;;;;;;;24.20;50.60;;;;;;5040849;28;19925;-80
2022/06/16 01:26:04;;;;;;;;;;;24.20;50.60;;;;;;5044288;28;19928;-78
2022/06/16 01:28:31;;;;;;;;;;;24.10;50.80;;;;;;5039864;28;20339;-77
2022/06/16 01:31:03;;;;;;;;;;;24.00;50.80;;;;;;5038586;28;19935;-77
2022/06/16 01:33:35;;;;;;;;;;;24.00;50.90;;;;;;5037407;28;19983;-74
2022/06/16 01:36:04;;;;;;;;;;;23.90;51.00;;;;;;5039115;28;19935;-76
2022/06/16 01:38:33;;;;;;;;;;;23.90;51.60;;;;;;5040523;28;19936;-79
2022/06/16 01:41:03;;;;;;;;;;;23.80;50.90;;;;;;5042756;28;20011;-75
2022/06/16 01:43:32;;;;;;;;;;;23.80;50.90;;;;;;5042608;28;19929;-77
2022/06/16 01:46:03;;;;;;;;;;;23.80;51.00;;;;;;5042132;28;19932;-78
2022/06/16 01:48:30;;;;;;;;;;;23.70;51.10;;;;;;5042564;28;19983;-77
2022/06/16 01:50:59;;;;;;;;;;;23.70;51.20;;;;;;5044343;28;19928;-79
2022/06/16 01:53:30;;;;;;;;;;;23.60;51.20;;;;;;5042518;28;19933;-79
2022/06/16 01:56:00;;;;;;;;;;;23.60;51.40;;;;;;5043512;28;19933;-79
2022/06/16 01:58:28;;;;;;;;;;;23.50;51.30;;;;;;5042053;28;19932;-75
2022/06/16 02:00:56;;;;;;;;;;;23.50;51.30;;;;;;5042429;28;19940;-76
2022/06/16 02:03:27;;;;;;;;;;;23.50;51.30;;;;;;5044196;28;20008;-75
2022/06/16 02:05:56;;;;;;;;;;;23.40;51.30;;;;;;5050712;28;20776;-75
2022/06/16 02:08:25;;;;;;;;;;;23.40;51.30;;;;;;5044183;28;19933;-79
2022/06/16 02:10:54;;;;;;;;;;;23.30;51.30;;;;;;5043613;28;19956;-79
2022/06/16 02:13:22;;;;;;;;;;;23.30;51.30;;;;;;5040805;28;19950;-75
2022/06/16 02:15:52;;;;;;;;;;;23.30;51.30;;;;;;5042825;28;19928;-81
2022/06/16 02:18:20;;;;;;;;;;;23.20;51.30;;;;;;5040867;28;19929;-79
2022/06/16 02:20:51;;;;;;;;;;;23.20;51.40;;;;;;5043663;28;19928;-75
2022/06/16 02:23:18;;;;;;;;;;;23.20;51.60;;;;;;5040891;28;19935;-75
2022/06/16 02:25:46;;;;;;;;;;;23.20;51.60;;;;;;5042606;28;20535;-77
2022/06/16 02:28:13;;;;;;;;;;;23.10;51.50;;;;;;5039761;28;20866;-76
2022/06/16 02:30:46;;;;;;;;;;;23.00;51.50;;;;;;5042125;28;20016;-79
2022/06/16 02:33:14;;;;;;;;;;;23.00;51.60;;;;;;5042032;28;20262;-77
2022/06/16 02:35:43;;;;;;;;;;;23.00;51.70;;;;;;5043052;28;19924;-78
2022/06/16 02:38:15;;;;;;;;;;;23.00;51.70;;;;;;5041400;28;19928;-76
2022/06/16 02:40:58;;;;;;;;;;;22.90;51.80;;;;;;5041589;28;19970;-74
2022/06/16 02:43:36;;;;;;;;;;;22.90;51.80;;;;;;5041888;28;19943;-80
2022/06/16 02:46:05;;;;;;;;;;;22.80;51.80;;;;;;5041724;28;19928;-79
2022/06/16 02:48:35;;;;;;;;;;;22.80;51.80;;;;;;5041490;28;19925;-76
2022/06/16 02:51:06;;;;;;;;;;;22.80;51.80;;;;;;5042988;28;20011;-76
2022/06/16 02:53:38;;;;;;;;;;;22.70;52.00;;;;;;5044349;28;19960;-74
2022/06/16 02:56:07;;;;;;;;;;;22.70;51.60;;;;;;5042515;28;20016;-76
2022/06/16 02:58:37;;;;;;;;;;;22.60;51.90;;;;;;5040870;28;19948;-78
2022/06/16 03:01:06;;;;;;;;;;;22.60;52.00;;;;;;5043023;28;19925;-76
2022/06/16 03:03:33;;;;;;;;;;;22.60;52.10;;;;;;5041306;28;19932;-75
2022/06/16 03:06:00;;;;;;;;;;;22.60;52.20;;;;;;5043974;28;20023;-78
2022/06/16 03:08:28;;;;;;;;;;;22.60;52.30;;;;;;5041968;28;19929;-79
2022/06/16 03:10:58;;;;;;;;;;;22.50;52.40;;;;;;5043087;28;19933;-80
2022/06/16 03:13:26;;;;;;;;;;;22.50;52.40;;;;;;5045072;28;19928;-81
2022/06/16 03:15:54;;;;;;;;;;;22.40;52.50;;;;;;5041614;28;19929;-79
2022/06/16 03:18:21;;;;;;;;;;;22.40;52.60;;;;;;5043743;28;19929;-78
2022/06/16 03:20:47;;;;;;;;;;;22.40;52.70;;;;;;5041571;28;20408;-81
2022/06/16 03:23:14;;;;;;;;;;;22.30;52.80;;;;;;5040711;28;19975;-75
2022/06/16 03:25:41;;;;;;;;;;;22.40;52.90;;;;;;5043132;28;20494;-75
2022/06/16 03:28:09;;;;;;;;;;;22.30;53.00;;;;;;5042703;28;19932;-75
2022/06/16 03:30:36;;;;;;;;;;;22.30;53.00;;;;;;5043012;28;20600;-77
2022/06/16 03:33:03;;;;;;;;;;;22.30;53.10;;;;;;5042059;28;19929;-74
2022/06/16 03:35:30;;;;;;;;;;;22.30;53.10;;;;;;5043035;28;19921;-76
2022/06/16 03:37:57;;;;;;;;;;;22.20;53.20;;;;;;5046629;28;20016;-78
2022/06/16 03:40:24;;;;;;;;;;;22.20;53.20;;;;;;5044370;28;20056;-74
2022/06/16 03:42:50;;;;;;;;;;;22.10;53.20;;;;;;5042379;28;19940;-79
2022/06/16 03:45:18;;;;;;;;;;;22.10;53.30;;;;;;5042902;28;20468;-78
2022/06/16 03:47:45;;;;;;;;;;;22.10;53.40;;;;;;5042435;28;19929;-75
2022/06/16 03:50:13;;;;;;;;;;;22.10;53.50;;;;;;5046708;28;20849;-77
2022/06/16 03:52:40;;;;;;;;;;;22.10;53.60;;;;;;5043484;28;20459;-78
2022/06/16 03:55:08;;;;;;;;;;;22.10;53.60;;;;;;5044187;28;19928;-77
2022/06/16 03:57:34;;;;;;;;;;;22.00;53.60;;;;;;5040653;28;19936;-80
2022/06/16 04:00:01;;;;;;;;;;;22.00;53.70;;;;;;5043994;28;20010;-75
2022/06/16 04:02:28;;;;;;;;;;;22.00;53.90;;;;;;5043394;28;19994;-80
2022/06/16 04:04:55;;;;;;;;;;;21.90;53.90;;;;;;5044305;28;19986;-75
2022/06/16 04:07:22;;;;;;;;;;;21.90;54.00;;;;;;5044497;28;19936;-79
2022/06/16 04:09:48;;;;;;;;;;;21.90;54.00;;;;;;5043882;28;19932;-75
2022/06/16 04:12:15;;;;;;;;;;;21.90;54.10;;;;;;5043234;28;19933;-76
2022/06/16 04:14:41;;;;;;;;;;;21.90;54.20;;;;;;5042816;28;20403;-75
2022/06/16 04:17:08;;;;;;;;;;;21.80;54.30;;;;;;5046806;28;19940;-76
2022/06/16 04:20:11;;;;;;;;;;;21.80;54.40;;;;;;5037125;28;19929;-77
2022/06/16 04:22:22;;;;;;;;;;;21.80;54.50;;;;;;5039179;28;20577;-76
2022/06/16 04:24:49;;;;;;;;;;;21.80;54.60;;;;;;5041625;28;19933;-77
2022/06/16 04:27:15;;;;;;;;;;;21.80;54.60;;;;;;5042221;28;19959;-76
2022/06/16 04:29:42;;;;;;;;;;;21.80;54.80;;;;;;5043916;28;19940;-77
2022/06/16 04:32:09;;;;;;;;;;;21.70;54.80;;;;;;5040932;28;19924;-78
2022/06/16 04:34:37;;;;;;;;;;;21.70;54.90;;;;;;5043901;28;20043;-78
2022/06/16 04:37:04;;;;;;;;;;;21.70;55.00;;;;;;5044704;28;19933;-77
2022/06/16 04:39:30;;;;;;;;;;;21.70;55.00;;;;;;5045989;28;20336;-76
2022/06/16 04:41:57;;;;;;;;;;;21.70;55.10;;;;;;5046107;28;20428;-78
2022/06/16 04:44:23;;;;;;;;;;;21.60;55.10;;;;;;5044039;28;20381;-76
2022/06/16 04:46:50;;;;;;;;;;;21.70;55.20;;;;;;5044647;28;20463;-77
2022/06/16 04:49:16;;;;;;;;;;;21.60;55.20;;;;;;5049086;28;19936;-78
2022/06/16 04:51:44;;;;;;;;;;;21.60;55.40;;;;;;5042543;28;20289;-76
2022/06/16 04:54:11;;;;;;;;;;;21.60;55.50;;;;;;5043958;28;20359;-78
2022/06/16 04:56:37;;;;;;;;;;;21.60;55.60;;;;;;5040410;28;19932;-75
2022/06/16 04:59:04;;;;;;;;;;;21.60;55.70;;;;;;5040749;28;19924;-78
2022/06/16 05:01:31;;;;;;;;;;;21.60;55.70;;;;;;5040073;28;19936;-78
2022/06/16 05:03:57;;;;;;;;;;;21.60;55.80;;;;;;5039769;28;19932;-77
2022/06/16 05:06:24;;;;;;;;;;;21.60;55.80;;;;;;5043613;28;19933;-76
2022/06/16 05:08:52;;;;;;;;;;;21.60;55.90;;;;;;5040454;28;19935;-78
2022/06/16 05:11:19;;;;;;;;;;;21.50;55.90;;;;;;5043353;28;20032;-76
2022/06/16 05:13:45;;;;;;;;;;;21.50;56.00;;;;;;5043978;28;19932;-79
2022/06/16 05:16:12;;;;;;;;;;;21.50;56.00;;;;;;5047000;28;19936;-79
2022/06/16 05:18:38;;;;;;;;;;;21.50;56.00;;;;;;5045613;28;19955;-75
2022/06/16 05:21:05;;;;;;;;;;;21.50;56.00;;;;;;5049022;28;19929;-76
2022/06/16 05:23:32;;;;;;;;;;;21.50;58.00;;;;;;5050262;28;20422;-77
2022/06/16 05:26:00;;;;;;;;;;;21.40;57.70;;;;;;5048833;28;19936;-77
2022/06/16 05:28:27;;;;;;;;;;;21.40;57.70;;;;;;5048600;28;19929;-78
2022/06/16 05:30:53;;;;;;;;;;;21.30;57.60;;;;;;5053443;28;19929;-77
2022/06/16 05:33:20;;;;;;;;;;;21.40;57.70;;;;;;5051097;28;19982;-79
2022/06/16 05:35:55;;;;;;;;;;;21.40;57.60;;;;;;5052804;28;19929;-77
2022/06/16 05:38:21;;;;;;;;;;;21.40;57.50;;;;;;5052983;28;19928;-79
2022/06/16 05:40:48;;;;;;;;;;;21.40;57.40;;;;;;5050574;28;19936;-77
2022/06/16 05:43:16;;;;;;;;;;;21.40;57.30;;;;;;5047347;28;19935;-78
2022/06/16 05:45:42;;;;;;;;;;;21.40;57.20;;;;;;5048395;28;20752;-79
2022/06/16 05:48:09;;;;;;;;;;;21.40;57.10;;;;;;5048524;28;21093;-78
2022/06/16 05:50:35;;;;;;;;;;;21.40;57.00;;;;;;5041287;28;19933;-79
2022/06/16 05:53:02;;;;;;;;;;;21.40;57.00;;;;;;5050216;28;19932;-79
2022/06/16 05:55:29;;;;;;;;;;;21.40;57.00;;;;;;5050112;28;19932;-76
2022/06/16 05:57:56;;;;;;;;;;;21.40;56.90;;;;;;5045580;28;20415;-78
2022/06/16 06:00:24;;;;;;;;;;;21.40;56.90;;;;;;5046103;28;20028;-80
2022/06/16 06:02:51;;;;;;;;;;;21.40;56.90;;;;;;5047025;28;19925;-84
2022/06/16 06:05:18;;;;;;;;;;;21.40;56.80;;;;;;5043197;28;19933;-75
2022/06/16 06:16:29;;;;;;;;;;;21.50;56.90;;;;;;5016478;28;19955;-76
2022/06/16 06:18:56;;;;;;;;;;;21.50;56.90;;;;;;5041611;28;20385;-78
2022/06/16 06:24:03;;;;;;;;;;;21.50;57.20;;;;;;5042779;28;19920;-76
2022/06/16 06:26:29;;;;;;;;;;;21.50;57.70;;;;;;5045509;28;20027;-75
2022/06/16 06:28:56;;;;;;;;;;;21.50;57.10;;;;;;5045793;28;20007;-80
2022/06/16 06:31:24;;;;;;;;;;;21.50;57.00;;;;;;5042881;28;19929;-77
2022/06/16 06:33:50;;;;;;;;;;;21.50;57.00;;;;;;5043598;28;20282;-78
2022/06/16 06:36:17;;;;;;;;;;;21.50;57.10;;;;;;5045207;28;19932;-79
2022/06/16 06:38:44;;;;;;;;;;;21.50;57.10;;;;;;5048259;28;20392;-80
2022/06/16 06:41:10;;;;;;;;;;;21.50;57.00;;;;;;5044098;28;20317;-76
2022/06/16 06:43:37;;;;;;;;;;;21.60;57.10;;;;;;5044341;28;19940;-77
2022/06/16 06:46:03;;;;;;;;;;;21.60;57.10;;;;;;5043201;28;20385;-76
2022/06/16 06:48:31;;;;;;;;;;;21.60;57.20;;;;;;5043478;28;20278;-77
2022/06/16 06:50:58;;;;;;;;;;;21.60;57.10;;;;;;5042309;28;19936;-80
2022/06/16 06:53:24;;;;;;;;;;;21.50;57.10;;;;;;5045061;28;20579;-77
2022/06/16 06:55:51;;;;;;;;;;;21.60;57.10;;;;;;5043933;28;19928;-79
2022/06/16 06:58:19;;;;;;;;;;;21.60;57.10;;;;;;5044034;28;19937;-77
2022/06/16 07:00:45;;;;;;;;;;;21.60;57.20;;;;;;5047449;28;19928;-80
2022/06/16 07:03:12;;;;;;;;;;;21.60;57.30;;;;;;5042336;28;20051;-77
2022/06/16 07:05:40;;;;;;;;;;;21.70;57.40;;;;;;5039408;28;19933;-75
2022/06/16 07:08:07;;;;;;;;;;;21.70;57.40;;;;;;5042046;28;19929;-75
2022/06/16 07:10:34;;;;;;;;;;;21.70;57.40;;;;;;5034745;28;19925;-78
2022/06/16 07:13:00;;;;;;;;;;;21.70;57.30;;;;;;5041299;28;19924;-79
2022/06/16 07:15:27;;;;;;;;;;;21.70;57.20;;;;;;5039507;28;19936;-78
2022/06/16 07:17:53;;;;;;;;;;;21.80;57.10;;;;;;5042363;28;19936;-76
2022/06/16 07:20:20;;;;;;;;;;;21.80;57.10;;;;;;5040239;28;19979;-78
2022/06/16 07:22:48;;;;;;;;;;;21.80;56.90;;;;;;5042465;28;19929;-76
2022/06/16 07:25:15;;;;;;;;;;;21.80;57.00;;;;;;5039842;28;19928;-76
2022/06/16 07:27:42;;;;;;;;;;;21.80;56.90;;;;;;5039779;28;20641;-76
2022/06/16 07:30:13;;;;;;;;;;;21.80;56.80;;;;;;5038807;28;19929;-76
2022/06/16 07:32:40;;;;;;;;;;;21.80;56.80;;;;;;5041993;28;20120;-81
2022/06/16 07:35:07;;;;;;;;;;;21.90;56.80;;;;;;5041933;28;19928;-76
2022/06/16 07:37:34;;;;;;;;;;;21.90;56.70;;;;;;5044144;28;20487;-80
2022/06/16 07:40:03;;;;;;;;;;;21.90;56.60;;;;;;5040932;28;19929;-79
2022/06/16 07:42:30;;;;;;;;;;;21.90;56.50;;;;;;5043590;28;19929;-80
2022/06/16 07:44:56;;;;;;;;;;;21.90;56.50;;;;;;5040373;28;20529;-77
2022/06/16 07:47:23;;;;;;;;;;;22.00;56.40;;;;;;5044867;28;19932;-78
2022/06/16 07:49:50;;;;;;;;;;;22.00;56.40;;;;;;5041914;28;19933;-76
2022/06/16 07:52:16;;;;;;;;;;;22.00;56.30;;;;;;5043821;28;19928;-76
2022/06/16 07:54:43;;;;;;;;;;;22.00;56.30;;;;;;5043540;28;19937;-78
2022/06/16 07:57:11;;;;;;;;;;;22.10;56.30;;;;;;5038605;28;20019;-78
2022/06/16 07:59:38;;;;;;;;;;;22.10;56.40;;;;;;5040378;28;20020;-68
2022/06/16 08:02:05;;;;;;;;;;;22.10;56.30;;;;;;5040248;28;19929;-67
2022/06/16 08:04:31;;;;;;;;;;;22.10;56.20;;;;;;5043458;28;19955;-68
2022/06/16 08:07:00;;;;;;;;;;;22.10;56.20;;;;;;5042646;28;19929;-70
2022/06/16 08:09:27;;;;;;;;;;;22.20;56.20;;;;;;5041521;28;20011;-68
2022/06/16 08:12:08;;;;;;;;;;;22.20;56.20;;;;;;5035273;28;20046;-78
2022/06/16 08:14:39;;;;;;;;;;;22.20;56.20;;;;;;5034927;28;20690;-77
2022/06/16 08:17:07;;;;;;;;;;;22.30;56.10;;;;;;5037872;28;20017;-74
2022/06/16 08:19:34;;;;;;;;;;;22.30;56.00;;;;;;5039008;28;20032;-78
2022/06/16 08:22:01;;;;;;;;;;;22.30;55.80;;;;;;5038207;28;19929;-77
2022/06/16 08:24:28;;;;;;;;;;;22.40;55.70;;;;;;5040287;28;19929;-77
2022/06/16 08:26:55;;;;;;;;;;;22.40;55.50;;;;;;5038130;28;19940;-76
2022/06/16 08:29:22;;;;;;;;;;;22.40;55.40;;;;;;5035894;28;19928;-76
2022/06/16 08:31:49;;;;;;;;;;;22.50;55.30;;;;;;5037146;28;19932;-78
2022/06/16 08:34:16;;;;;;;;;;;22.50;55.20;;;;;;5039227;28;19929;-78
2022/06/16 08:36:43;;;;;;;;;;;22.50;54.90;;;;;;5047766;28;19951;-78
2022/06/16 08:39:10;;;;;;;;;;;22.60;55.00;;;;;;5047394;28;19928;-78
2022/06/16 08:41:38;;;;;;;;;;;22.60;55.00;;;;;;5046742;28;20575;-78
2022/06/16 08:44:09;;;;;;;;;;;22.60;55.00;;;;;;5047876;28;19932;-77
2022/06/16 08:46:37;;;;;;;;;;;22.70;54.90;;;;;;5040200;28;19929;-77
2022/06/16 08:49:08;;;;;;;;;;;22.70;54.70;;;;;;5045701;28;19929;-77
2022/06/16 08:51:41;;;;;;;;;;;22.80;54.60;;;;;;5051131;28;19925;-78
2022/06/16 08:54:18;;;;;;;;;;;22.90;54.40;;;;;;5052014;28;19940;-78
2022/06/16 08:56:48;;;;;;;;;;;22.90;54.20;;;;;;5048221;28;19967;-79
2022/06/16 08:59:18;;;;;;;;;;;22.90;54.00;;;;;;5050126;28;20384;-78
2022/06/16 09:01:48;;;;;;;;;;;23.00;54.10;;;;;;5045270;28;19936;-80
2022/06/16 09:04:21;;;;;;;;;;;23.00;54.00;;;;;;5051287;28;19940;-80
2022/06/16 09:06:57;;;;;;;;;;;23.10;53.90;;;;;;5046710;28;19936;-78
2022/06/16 09:12:22;;;;;;;;;;;23.10;53.40;;;;;;5051610;28;19951;-81
2022/06/16 09:17:52;;;;;;;;;;;23.30;53.20;;;;;;5029405;28;19925;-78
2022/06/16 09:20:23;;;;;;;;;;;23.30;52.80;;;;;;5051984;28;19943;-79
2022/06/16 09:23:01;;;;;;;;;;;23.30;52.50;;;;;;5053813;28;19936;-82
2022/06/16 09:25:33;;;;;;;;;;;23.40;52.50;;;;;;5053092;28;19932;-80
2022/06/16 09:28:02;;;;;;;;;;;23.50;52.50;;;;;;5051400;28;19941;-79
2022/06/16 09:30:31;;;;;;;;;;;23.50;52.40;;;;;;5051237;28;19967;-79
2022/06/16 09:33:00;;;;;;;;;;;23.50;52.40;;;;;;5049400;28;19932;-78
2022/06/16 09:35:31;;;;;;;;;;;23.60;52.20;;;;;;5051092;28;19929;-78
2022/06/16 09:38:02;;;;;;;;;;;23.70;52.20;;;;;;5052564;28;19929;-80
2022/06/16 09:40:33;;;;;;;;;;;23.70;52.00;;;;;;5051997;28;19928;-81
2022/06/16 09:43:03;;;;;;;;;;;23.80;52.00;;;;;;5048113;28;19929;-81
2022/06/16 09:45:34;;;;;;;;;;;23.80;51.90;;;;;;5045789;28;19929;-82
2022/06/16 09:48:05;;;;;;;;;;;23.90;51.60;;;;;;5050967;28;19929;-79
2022/06/16 09:50:37;;;;;;;;;;;24.00;51.50;;;;;;5046070;28;19929;-78
2022/06/16 09:53:05;;;;;;;;;;;24.00;51.20;;;;;;5047457;28;20736;-77
2022/06/16 09:55:34;;;;;;;;;;;24.10;51.30;;;;;;5048238;28;19936;-79
2022/06/16 09:58:03;;;;;;;;;;;24.20;50.90;;;;;;5046954;28;20308;-78
2022/06/16 10:00:34;;;;;;;;;;;24.20;50.60;;;;;;5040429;28;19971;-78
2022/06/16 10:03:03;;;;;;;;;;;24.30;50.50;;;;;;5045415;28;19960;-81
2022/06/16 10:05:35;;;;;;;;;;;24.30;50.50;;;;;;5048254;28;19940;-77
2022/06/16 10:08:05;;;;;;;;;;;24.40;50.40;;;;;;5049771;28;19929;-79
2022/06/16 10:10:34;;;;;;;;;;;24.50;50.10;;;;;;5044197;28;20369;-80
2022/06/16 10:13:04;;;;;;;;;;;24.50;49.70;;;;;;5054038;28;19936;-79
2022/06/16 10:15:33;;;;;;;;;;;24.60;49.70;;;;;;5049293;28;19928;-79
2022/06/16 10:17:59;;;;;;;;;;;24.70;49.50;;;;;;5050490;28;19939;-78
2022/06/16 10:20:27;;;;;;;;;;;24.80;49.70;;;;;;5052343;28;19932;-79
2022/06/16 10:22:57;;;;;;;;;;;24.90;49.70;;;;;;5048886;28;19925;-78
2022/06/16 10:25:28;;;;;;;;;;;24.90;49.50;;;;;;5048457;28;19929;-77
2022/06/16 10:27:59;;;;;;;;;;;25.00;48.80;;;;;;5050038;28;20423;-80
2022/06/16 10:30:27;;;;;;;;;;;25.10;48.60;;;;;;5045881;28;19932;-80
2022/06/16 10:33:01;;;;;;;;;;;25.10;48.60;;;;;;5048819;28;19979;-78
2022/06/16 10:35:29;;;;;;;;;;;25.20;48.90;;;;;;5050301;28;20381;-80
2022/06/16 10:37:55;;;;;;;;;;;25.30;48.50;;;;;;5046277;28;19954;-76
2022/06/16 10:40:27;;;;;;;;;;;25.30;47.70;;;;;;5039197;28;19933;-78
2022/06/16 10:42:56;;;;;;;;;;;25.40;47.70;;;;;;5038866;28;19929;-78
2022/06/16 10:45:23;;;;;;;;;;;25.50;48.40;;;;;;5043495;28;19934;-77
2022/06/16 10:47:52;;;;;;;;;;;25.60;48.50;;;;;;5040080;28;19929;-77
2022/06/16 10:50:22;;;;;;;;;;;25.60;48.20;;;;;;5041592;28;19933;-78
2022/06/16 10:52:51;;;;;;;;;;;25.70;48.00;;;;;;5041051;28;19940;-77
2022/06/16 10:55:20;;;;;;;;;;;25.80;47.40;;;;;;5038377;28;19936;-77
2022/06/16 10:57:49;;;;;;;;;;;25.90;47.30;;;;;;5039706;28;19932;-78
2022/06/16 11:00:18;;;;;;;;;;;25.90;47.10;;;;;;5043331;28;20393;-78
2022/06/16 11:02:56;;;;;;;;;;;26.00;47.20;;;;;;5047809;28;20710;-79
2022/06/16 11:05:24;;;;;;;;;;;26.00;46.20;;;;;;5045848;28;20289;-77
2022/06/16 11:07:51;;;;;;;;;;;26.10;46.00;;;;;;5039392;28;19929;-76
2022/06/16 11:10:28;;;;;;;;;;;26.20;46.40;;;;;;5047137;28;19929;-76
2022/06/16 11:12:57;;;;;;;;;;;26.20;46.70;;;;;;5045264;28;19932;-75
2022/06/16 11:15:28;;;;;;;;;;;26.30;46.60;;;;;;5050869;28;20398;-77
2022/06/16 11:17:56;;;;;;;;;;;26.40;46.60;;;;;;5053110;28;19933;-77
2022/06/16 11:20:27;;;;;;;;;;;26.50;46.20;;;;;;5045905;28;19928;-77
2022/06/16 11:22:57;;;;;;;;;;;26.50;45.80;;;;;;5049566;28;19932;-77
2022/06/16 11:25:26;;;;;;;;;;;26.60;45.70;;;;;;5036886;28;20040;-78
2022/06/16 11:27:59;;;;;;;;;;;26.60;45.80;;;;;;5041961;28;19928;-75
2022/06/16 11:30:30;;;;;;;;;;;26.70;45.50;;;;;;5047831;28;19936;-76
2022/06/16 11:32:57;;;;;;;;;;;26.70;45.10;;;;;;5046580;28;19935;-79
2022/06/16 11:35:27;;;;;;;;;;;26.90;45.20;;;;;;5051848;28;20400;-76
2022/06/16 11:37:59;;;;;;;;;;;26.90;45.40;;;;;;5053492;28;19925;-76
2022/06/16 11:40:30;;;;;;;;;;;27.00;45.30;;;;;;5046315;28;19929;-78
2022/06/16 11:43:03;;;;;;;;;;;27.10;45.50;;;;;;5046591;28;19924;-78
2022/06/16 11:45:33;;;;;;;;;;;27.10;45.40;;;;;;5040313;28;19929;-77
2022/06/16 11:48:03;;;;;;;;;;;27.20;44.80;;;;;;5049949;28;19933;-77
2022/06/16 11:50:34;;;;;;;;;;;27.20;44.50;;;;;;5045348;28;19936;-76
2022/06/16 11:53:06;;;;;;;;;;;27.30;44.90;;;;;;5043438;28;19940;-76
2022/06/16 11:55:36;;;;;;;;;;;27.30;45.00;;;;;;5042406;28;19925;-77
2022/06/16 11:58:09;;;;;;;;;;;27.40;44.50;;;;;;5041251;28;20446;-76
2022/06/16 12:00:38;;;;;;;;;;;27.50;44.70;;;;;;5045373;28;19936;-76
2022/06/16 12:03:25;;;;;;;;;;;27.50;44.40;;;;;;5049211;28;19925;-77
2022/06/16 12:06:00;;;;;;;;;;;27.60;44.40;;;;;;5042746;28;19932;-76
2022/06/16 12:08:31;;;;;;;;;;;27.70;44.30;;;;;;5047500;28;19952;-77
2022/06/16 12:11:04;;;;;;;;;;;27.70;44.00;;;;;;5049056;28;19944;-82
2022/06/16 12:13:35;;;;;;;;;;;27.80;44.40;;;;;;5047545;28;19991;-78
2022/06/16 12:16:07;;;;;;;;;;;27.80;44.50;;;;;;5043031;28;19939;-79
2022/06/16 12:18:37;;;;;;;;;;;27.90;44.40;;;;;;5048800;28;19935;-77
2022/06/16 12:21:08;;;;;;;;;;;27.90;44.00;;;;;;5048287;28;19948;-76
2022/06/16 12:23:40;;;;;;;;;;;28.00;43.70;;;;;;5043446;28;20280;-76
2022/06/16 12:26:09;;;;;;;;;;;28.00;43.30;;;;;;5045565;28;19929;-75
2022/06/16 12:28:41;;;;;;;;;;;28.00;42.90;;;;;;5044252;28;19924;-77
2022/06/16 12:31:11;;;;;;;;;;;28.00;42.80;;;;;;5047059;28;19932;-77
2022/06/16 12:33:43;;;;;;;;;;;28.10;42.80;;;;;;5044102;28;20352;-76
2022/06/16 12:36:12;;;;;;;;;;;28.10;42.40;;;;;;5033033;28;19975;-77
2022/06/16 12:38:45;;;;;;;;;;;28.10;43.00;;;;;;5032272;28;19932;-78
2022/06/16 12:41:15;;;;;;;;;;;28.20;42.70;;;;;;5043901;28;20027;-76
2022/06/16 12:43:45;;;;;;;;;;;28.30;42.90;;;;;;5046505;28;19991;-74
2022/06/16 12:46:14;;;;;;;;;;;28.30;43.10;;;;;;5045560;28;19925;-77
2022/06/16 12:48:44;;;;;;;;;;;28.30;42.10;;;;;;5045533;28;19933;-77
2022/06/16 12:51:12;;;;;;;;;;;28.40;42.30;;;;;;5040424;28;19975;-78
2022/06/16 12:53:41;;;;;;;;;;;28.40;42.00;;;;;;5039666;28;19940;-75
2022/06/16 12:56:09;;;;;;;;;;;28.50;42.10;;;;;;5041515;28;20456;-73
2022/06/16 12:58:38;;;;;;;;;;;28.60;42.30;;;;;;5034427;28;19929;-75
2022/06/16 13:01:07;;;;;;;;;;;28.60;42.20;;;;;;5040335;28;19929;-75
2022/06/16 13:03:37;;;;;;;;;;;28.70;42.30;;;;;;5045495;28;20391;-75
2022/06/16 13:06:04;;;;;;;;;;;28.70;41.00;;;;;;5043751;28;19936;-77
2022/06/16 13:08:31;;;;;;;;;;;28.80;41.70;;;;;;5042845;28;20616;-75
2022/06/16 13:10:59;;;;;;;;;;;28.80;41.00;;;;;;5037456;28;19924;-75
2022/06/16 13:13:30;;;;;;;;;;;28.90;41.10;;;;;;5045715;28;20346;-77
2022/06/16 13:16:00;;;;;;;;;;;29.00;40.70;;;;;;5047055;28;19925;-76
2022/06/16 13:18:29;;;;;;;;;;;29.00;39.70;;;;;;5043014;28;19940;-76
2022/06/16 13:20:59;;;;;;;;;;;29.10;39.30;;;;;;5043494;28;19933;-75
2022/06/16 13:23:31;;;;;;;;;;;29.10;39.70;;;;;;5044234;28;19925;-77
2022/06/16 13:26:15;;;;;;;;;;;29.20;39.80;;;;;;5045044;28;19929;-75
2022/06/16 13:28:50;;;;;;;;;;;29.20;40.10;;;;;;5043112;28;19928;-79
2022/06/16 13:31:23;;;;;;;;;;;29.30;39.20;;;;;;5036759;28;19940;-76
2022/06/16 13:34:09;;;;;;;;;;;29.30;39.60;;;;;;5040045;28;19925;-75
2022/06/16 13:36:41;;;;;;;;;;;29.40;39.60;;;;;;5043834;28;19933;-75
2022/06/16 13:39:09;;;;;;;;;;;29.40;39.60;;;;;;5041587;28;19998;-76
2022/06/16 13:41:37;;;;;;;;;;;29.50;39.70;;;;;;5044652;28;19936;-76
2022/06/16 13:44:04;;;;;;;;;;;29.60;39.50;;;;;;5044716;28;20286;-75
2022/06/16 13:46:47;;;;;;;;;;;29.60;39.30;;;;;;5044713;28;19940;-75
2022/06/16 13:49:25;;;;;;;;;;;29.70;39.10;;;;;;5041216;28;19932;-76
2022/06/16 13:51:52;;;;;;;;;;;29.70;38.30;;;;;;5038090;28;19932;-75
2022/06/16 13:54:28;;;;;;;;;;;29.80;38.30;;;;;;5042509;28;19928;-74
2022/06/16 13:56:55;;;;;;;;;;;29.80;38.10;;;;;;5040036;28;19939;-76
2022/06/16 13:59:27;;;;;;;;;;;29.90;38.20;;;;;;5043560;28;19932;-76
2022/06/16 14:02:01;;;;;;;;;;;30.00;38.10;;;;;;5042919;28;19929;-77
2022/06/16 14:04:29;;;;;;;;;;;30.00;37.70;;;;;;5042284;28;19941;-76
2022/06/16 14:07:01;;;;;;;;;;;30.10;38.00;;;;;;5041439;28;19975;-74
2022/06/16 14:09:30;;;;;;;;;;;30.10;37.00;;;;;;5044680;28;19928;-76
2022/06/16 14:12:14;;;;;;;;;;;30.20;36.90;;;;;;5039728;28;19928;-76
2022/06/16 14:15:00;;;;;;;;;;;30.20;36.80;;;;;;5043638;28;20008;-77
2022/06/16 14:17:28;;;;;;;;;;;30.30;36.60;;;;;;5036618;28;19936;-78
2022/06/16 14:19:56;;;;;;;;;;;30.30;37.00;;;;;;5036881;28;19935;-74
2022/06/16 14:22:23;;;;;;;;;;;30.40;37.00;;;;;;5042083;28;19940;-72
2022/06/16 14:24:53;;;;;;;;;;;30.50;36.50;;;;;;5038254;28;19929;-73
2022/06/16 14:27:23;;;;;;;;;;;30.90;28.80;;;;;;5039159;28;19983;-73
2022/06/16 14:29:50;;;;;;;;;;;31.30;30.40;;;;;;5035849;28;20661;-74
2022/06/16 14:32:18;;;;;;;;;;;31.80;30.50;;;;;;5042039;28;19936;-74
2022/06/16 14:34:51;;;;;;;;;;;32.10;30.40;;;;;;5041034;28;19936;-77
2022/06/16 14:37:23;;;;;;;;;;;32.30;30.40;;;;;;5040447;28;19929;-72
2022/06/16 14:39:51;;;;;;;;;;;32.40;30.30;;;;;;5039893;28;19932;-75
2022/06/16 14:42:19;;;;;;;;;;;32.60;30.20;;;;;;5040703;28;20422;-73
2022/06/16 14:44:51;;;;;;;;;;;32.70;30.30;;;;;;5040671;28;19932;-74
2022/06/16 14:47:20;;;;;;;;;;;32.70;30.40;;;;;;5038501;28;19929;-73